createdAt,value
2018-07-10T00:05:44.513Z,17.3
2018-07-10T00:15:43.750Z,17.4
2018-07-10T00:25:42.986Z,17.4
2018-07-10T00:35:42.224Z,17.4
2018-07-10T00:45:41.468Z,17.4
2018-07-10T00:55:40.696Z,17.4
2018-07-10T01:05:39.929Z,17.3
2018-07-10T01:15:39.165Z,17.3
2018-07-10T01:25:38.403Z,17.2
2018-07-10T01:35:37.640Z,17.1
2018-07-10T01:45:36.875Z,17.1
2018-07-10T01:55:36.112Z,17.1
2018-07-10T02:05:35.352Z,16.9
2018-07-10T02:15:34.591Z,16.9
2018-07-10T02:25:33.820Z,16.7
2018-07-10T02:35:33.059Z,16.7
2018-07-10T02:45:32.293Z,16.6
2018-07-10T02:55:31.529Z,16.7
2018-07-10T03:05:30.769Z,16.6
2018-07-10T03:15:30.012Z,16.7
2018-07-10T03:25:29.239Z,16.6
2018-07-10T03:35:28.476Z,16.8
2018-07-10T03:45:27.710Z,17.3
2018-07-10T03:55:26.948Z,17.6
2018-07-10T04:05:26.188Z,17.8
2018-07-10T04:15:25.420Z,17.9
2018-07-10T04:25:24.655Z,17.9
2018-07-10T04:35:23.891Z,17.9
2018-07-10T04:45:23.128Z,17.9
2018-07-10T04:55:22.418Z,18
2018-07-10T05:05:21.600Z,18.1
2018-07-10T05:15:20.834Z,18.3
2018-07-10T05:25:20.073Z,18.4
2018-07-10T05:35:19.305Z,18.5
2018-07-10T05:45:18.593Z,18.6
2018-07-10T05:55:17.778Z,18.6
2018-07-10T06:05:17.022Z,18.8
2018-07-10T06:15:16.275Z,18.9
2018-07-10T06:25:15.487Z,18.9
2018-07-10T06:35:14.722Z,19.1
2018-07-10T06:45:13.958Z,19.4
2018-07-10T06:55:13.194Z,19.8
2018-07-10T07:05:12.430Z,20.2
2018-07-10T07:15:11.665Z,21
2018-07-10T07:25:10.900Z,21.9
2018-07-10T07:35:10.140Z,22.9
2018-07-10T07:45:09.381Z,23.9
2018-07-10T07:55:08.608Z,24.9
2018-07-10T08:05:07.880Z,26.2
2018-07-10T08:15:07.081Z,27.3
2018-07-10T08:25:06.321Z,28
2018-07-10T08:35:05.557Z,28.4
2018-07-10T08:45:04.793Z,28.3
2018-07-10T08:55:04.034Z,28.6
2018-07-10T09:05:03.260Z,29.2
2018-07-10T09:15:02.497Z,28.5
2018-07-10T09:25:01.732Z,27.1
2018-07-10T09:35:00.968Z,26.1
2018-07-10T09:45:00.212Z,25.8
2018-07-10T09:54:59.565Z,25.5
2018-07-10T10:04:58.681Z,25.8
2018-07-10T10:14:57.911Z,26.3
2018-07-10T10:24:57.149Z,25.7
2018-07-10T10:34:56.384Z,24.9
2018-07-10T10:44:55.615Z,25.2
2018-07-10T10:54:54.911Z,24.6
2018-07-10T11:04:54.097Z,24.2
2018-07-10T11:14:53.327Z,24.4
2018-07-10T11:24:52.562Z,25.2
2018-07-10T11:34:51.795Z,25.8
2018-07-10T11:44:51.032Z,25.3
2018-07-10T11:54:50.267Z,24.8
2018-07-10T12:04:49.505Z,24.3
2018-07-10T12:14:48.739Z,24.1
2018-07-10T12:24:47.974Z,23.9
2018-07-10T12:34:47.228Z,24.3
2018-07-10T12:44:46.447Z,24
2018-07-10T12:54:45.682Z,23.8
2018-07-10T13:04:44.916Z,23.8
2018-07-10T13:14:44.152Z,23.9
2018-07-10T13:24:43.387Z,23.8
2018-07-10T13:34:42.624Z,23.7
2018-07-10T13:44:41.865Z,23.6
2018-07-10T13:54:41.095Z,23.4
2018-07-10T14:04:40.336Z,23.1
2018-07-10T14:14:39.568Z,23.1
2018-07-10T14:24:38.806Z,22.9
2018-07-10T14:34:38.039Z,22.6
2018-07-10T14:44:37.281Z,22.7
2018-07-10T14:54:36.515Z,22.8
2018-07-10T15:04:35.747Z,22.7
2018-07-10T15:14:35.015Z,22.6
2018-07-10T15:24:34.220Z,22.6
2018-07-10T15:34:33.453Z,22.6
2018-07-10T15:44:32.691Z,22.4
2018-07-10T15:54:31.929Z,22.2
2018-07-10T16:04:31.171Z,22.1
2018-07-10T16:14:30.403Z,22
2018-07-10T16:24:29.639Z,21.9
2018-07-10T16:34:28.874Z,21.8
2018-07-10T16:44:28.111Z,21.8
2018-07-10T16:54:27.345Z,21.8
2018-07-10T17:04:26.580Z,21.7
2018-07-10T17:14:25.824Z,21.8
2018-07-10T17:24:25.054Z,21.8
2018-07-10T17:34:24.293Z,21.6
2018-07-10T17:44:23.526Z,21.4
2018-07-10T17:54:22.773Z,21.4
2018-07-10T18:04:21.999Z,21.1
2018-07-10T18:14:21.245Z,20.9
2018-07-10T18:24:20.479Z,20.6
2018-07-10T18:34:19.717Z,20.4
2018-07-10T18:44:18.942Z,20.4
2018-07-10T18:54:18.288Z,20.3
2018-07-10T19:04:17.467Z,20.1
2018-07-10T19:14:16.650Z,19.9
2018-07-10T19:24:15.886Z,19.8
2018-07-10T19:34:15.132Z,19.6
2018-07-10T19:44:14.358Z,19.5
2018-07-10T19:54:13.608Z,19.8
2018-07-10T20:04:12.835Z,19.9
2018-07-10T20:14:12.071Z,20
2018-07-10T20:24:11.303Z,20
2018-07-10T20:34:10.541Z,20
2018-07-10T20:44:09.772Z,19.9
2018-07-10T20:54:09.007Z,19.9
2018-07-10T21:04:08.240Z,19.8
2018-07-10T21:14:07.473Z,19.7
2018-07-10T21:24:06.707Z,19.6
2018-07-10T21:34:05.941Z,19.5
2018-07-10T21:44:05.176Z,19.4
2018-07-10T21:54:04.411Z,19.3
2018-07-10T22:04:03.692Z,19.3
2018-07-10T22:14:02.882Z,19.2
2018-07-10T22:24:02.114Z,19.2
2018-07-10T22:34:01.346Z,19.1
2018-07-10T22:44:00.577Z,19
2018-07-10T22:53:59.809Z,18.9
2018-07-10T23:03:59.039Z,18.9
2018-07-10T23:13:58.270Z,18.8
2018-07-10T23:23:57.510Z,18.8
2018-07-10T23:33:56.735Z,18.8
2018-07-10T23:43:55.967Z,18.9
2018-07-10T23:53:55.198Z,18.8
